Time;durP1;ratioP1;P1;durP2;ratioP2;P2;SDS_P1;SDS_P2;PMS_P1;PMS_P2;Temp;Humidity;BMP_temperature;BMP_pressure;BME280_temperature;BME280_humidity;BME280_pressure;Samples;Min_cycle;Max_cycle;Signal;HPM_P1;HPM_P2
2023/03/26 00:00:54;;;;;;;1.30;1.20;;;;;;;12.54;68.06;94379.44;5060872;28;20226;-79
2023/03/26 00:03:21;;;;;;;2.73;1.43;;;;;;;12.50;68.20;94378.31;5060442;28;20190;-80
2023/03/26 00:05:47;;;;;;;2.57;2.23;;;;;;;12.52;68.51;94381.53;5060997;28;20206;-80
2023/03/26 00:08:14;;;;;;;4.13;3.20;;;;;;;12.37;67.88;94366.16;5059334;28;20231;-80
2023/03/26 00:10:41;;;;;;;11.77;7.38;;;;;;;12.10;68.59;94367.75;5057657;28;20413;-79
2023/03/26 00:13:08;;;;;;;7.07;4.32;;;;;;;12.12;69.76;94376.22;5058186;28;20434;-79
2023/03/26 00:15:35;;;;;;;14.90;7.70;;;;;;;12.17;69.47;94368.41;5051741;28;20617;-80
2023/03/26 00:18:01;;;;;;;15.97;8.30;;;;;;;12.00;68.92;94341.16;5055540;28;20410;-80
2023/03/26 00:20:28;;;;;;;9.20;4.23;;;;;;;12.13;69.39;94351.44;5059295;28;20193;-79
2023/03/26 00:22:54;;;;;;;7.93;4.00;;;;;;;12.19;69.35;94353.16;5065793;28;20282;-80
2023/03/26 00:25:22;;;;;;;5.32;2.88;;;;;;;11.90;69.15;94302.16;5064060;28;20439;-80
2023/03/26 00:27:48;;;;;;;2.70;2.10;;;;;;;12.26;68.86;94358.31;5062213;28;20286;-80
2023/03/26 00:30:14;;;;;;;4.18;2.33;;;;;;;12.21;68.71;94347.63;5061795;28;20499;-80
2023/03/26 00:32:39;;;;;;;3.50;2.20;;;;;;;12.21;68.93;94348.44;5062334;28;20264;-80
2023/03/26 00:35:05;;;;;;;4.70;2.20;;;;;;;12.01;68.92;94308.47;5063615;28;20629;-79
2023/03/26 00:37:32;;;;;;;4.77;3.20;;;;;;;12.18;68.87;94334.91;5063227;28;20582;-80
2023/03/26 00:40:03;;;;;;;6.70;2.63;;;;;;;12.17;68.99;94346.50;5068158;28;20178;-80
2023/03/26 00:42:28;;;;;;;5.95;2.65;;;;;;;12.04;68.71;94335.16;5064750;28;20840;-80
2023/03/26 00:44:56;;;;;;;5.60;3.53;;;;;;;12.03;68.29;94343.31;5066234;28;20273;-79
2023/03/26 00:47:23;;;;;;;5.13;3.53;;;;;;;11.98;68.67;94332.66;5063597;28;20175;-79
2023/03/26 00:49:49;;;;;;;4.93;3.20;;;;;;;12.03;68.77;94344.09;5063241;28;20504;-79
2023/03/26 00:52:17;;;;;;;5.95;3.60;;;;;;;11.76;68.66;94318.47;5067782;28;20431;-79
2023/03/26 00:54:44;;;;;;;3.80;2.80;;;;;;;11.92;68.43;94334.41;5063598;28;20632;-80
2023/03/26 00:57:10;;;;;;;2.75;1.60;;;;;;;11.81;68.14;94306.19;5065946;28;20474;-80
2023/03/26 00:59:37;;;;;;;2.23;1.70;;;;;;;12.00;67.95;94339.31;5063387;28;20175;-80
2023/03/26 01:02:03;;;;;;;3.25;1.70;;;;;;;11.88;68.36;94340.34;5070857;28;20906;-79
2023/03/26 01:04:33;;;;;;;3.42;1.33;;;;;;;11.95;68.03;94348.94;5071182;28;20417;-79
2023/03/26 01:07:08;;;;;;;2.50;1.57;;;;;;;11.87;68.45;94347.47;5059184;28;20472;-79
2023/03/26 01:09:36;;;;;;;2.40;1.40;;;;;;;11.95;68.23;94351.56;5063223;28;20832;-79
2023/03/26 01:12:05;;;;;;;2.03;1.63;;;;;;;11.87;68.19;94352.72;5064367;28;20410;-80
2023/03/26 01:14:32;;;;;;;2.60;1.70;;;;;;;11.89;68.28;94341.97;5066602;28;20180;-79
2023/03/26 01:17:00;;;;;;;2.90;1.70;;;;;;;11.90;68.32;94351.47;5068386;28;20865;-79
2023/03/26 01:19:32;;;;;;;1.57;1.17;;;;;;;11.95;68.06;94355.00;5063795;28;20701;-79
2023/03/26 01:21:59;;;;;;;2.07;1.47;;;;;;;11.89;68.75;94352.50;5065568;28;20197;-79
2023/03/26 01:24:25;;;;;;;2.37;1.83;;;;;;;11.87;69.29;94354.56;5063018;28;20179;-79
2023/03/26 01:27:19;;;;;;;1.17;1.10;;;;;;;11.94;68.91;94363.16;5070400;28;20167;-80
2023/03/26 01:30:02;;;;;;;1.10;1.00;;;;;;;11.97;68.49;94370.63;5072737;28;20437;-80
2023/03/26 01:32:42;;;;;;;0.80;0.80;;;;;;;11.81;68.59;94347.59;5065539;28;20167;-80
2023/03/26 01:35:31;;;;;;;0.90;0.90;;;;;;;11.94;68.66;94368.44;5058686;28;20658;-80
2023/03/26 01:38:21;;;;;;;1.10;1.00;;;;;;;11.92;68.95;94367.88;5065066;28;20258;-79
2023/03/26 01:41:08;;;;;;;0.83;0.83;;;;;;;11.93;69.14;94372.94;5058475;28;20224;-79
2023/03/26 01:43:50;;;;;;;3.70;1.33;;;;;;;11.93;69.01;94358.94;5056955;28;20185;-79
2023/03/26 01:46:18;;;;;;;3.55;1.88;;;;;;;11.90;69.52;94370.75;5060758;28;20408;-79
2023/03/26 01:48:45;;;;;;;2.97;1.80;;;;;;;11.98;69.24;94374.84;5068122;28;20194;-79
2023/03/26 01:51:12;;;;;;;1.67;1.13;;;;;;;12.02;69.26;94379.44;5066859;28;20175;-79
2023/03/26 01:53:43;;;;;;;2.22;1.30;;;;;;;11.89;70.14;94360.41;5054975;28;20418;-79
2023/03/26 01:56:12;;;;;;;3.60;2.00;;;;;;;12.01;70.00;94375.22;5065425;28;20179;-80
2023/03/26 01:58:54;;;;;;;4.63;2.27;;;;;;;12.03;69.74;94372.31;5070137;28;20185;-79
2023/03/26 02:01:43;;;;;;;2.03;1.40;;;;;;;11.93;69.62;94351.81;5063064;28;20223;-80
2023/03/26 02:04:25;;;;;;;2.33;1.80;;;;;;;11.84;69.87;94347.13;5063011;28;20269;-79
2023/03/26 02:07:22;;;;;;;3.33;1.40;;;;;;;11.89;70.42;94373.59;5053210;28;20454;-79
2023/03/26 02:09:52;;;;;;;2.67;1.80;;;;;;;11.81;70.51;94366.03;5060756;28;20280;-80
2023/03/26 02:12:21;;;;;;;3.38;1.90;;;;;;;11.78;70.52;94382.31;5071299;28;20410;-79
2023/03/26 02:14:47;;;;;;;3.77;2.43;;;;;;;11.72;70.66;94384.00;5054403;28;20688;-79
2023/03/26 02:17:13;;;;;;;4.17;2.10;;;;;;;11.66;71.06;94383.09;5061255;28;20302;-79
2023/03/26 02:19:41;;;;;;;3.50;2.00;;;;;;;11.64;71.18;94373.81;5064612;28;20174;-79
2023/03/26 02:22:09;;;;;;;3.47;2.37;;;;;;;11.62;71.47;94375.88;5062871;28;20171;-79
2023/03/26 02:24:38;;;;;;;3.87;3.00;;;;;;;11.52;71.81;94373.78;5063057;28;20182;-79
2023/03/26 02:27:06;;;;;;;3.23;2.17;;;;;;;11.51;72.43;94364.28;5062650;28;20186;-79
2023/03/26 02:29:38;;;;;;;3.57;2.10;;;;;;;11.43;72.40;94366.44;5068181;28;20203;-79
2023/03/26 02:32:05;;;;;;;4.53;2.47;;;;;;;11.45;73.13;94381.00;5061407;28;20177;-80
2023/03/26 02:34:31;;;;;;;5.23;2.97;;;;;;;11.46;72.69;94382.63;5064574;28;20175;-80
2023/03/26 02:36:57;;;;;;;3.30;2.30;;;;;;;11.46;73.06;94369.44;5064827;28;20169;-80
2023/03/26 02:39:23;;;;;;;3.87;2.43;;;;;;;11.46;72.41;94369.44;5063484;28;20409;-80
2023/03/26 02:41:48;;;;;;;2.20;1.80;;;;;;;11.61;72.83;94387.44;5064309;28;20186;-80
2023/03/26 02:44:14;;;;;;;2.13;1.63;;;;;;;11.70;72.20;94389.50;5063355;28;20182;-80
2023/03/26 02:46:39;;;;;;;2.17;1.87;;;;;;;11.75;71.95;94393.34;5062043;28;20659;-81
2023/03/26 02:49:05;;;;;;;2.87;1.37;;;;;;;11.64;71.82;94385.16;5068232;28;20221;-80
2023/03/26 02:51:33;;;;;;;1.50;1.40;;;;;;;11.58;71.89;94374.72;5056375;28;20250;-79
2023/03/26 02:54:00;;;;;;;2.50;1.80;;;;;;;11.68;71.92;94407.38;5061005;28;20976;-79
2023/03/26 02:56:26;;;;;;;2.07;1.23;;;;;;;11.72;72.35;94408.53;5057695;28;20174;-79
2023/03/26 02:58:51;;;;;;;3.97;2.07;;;;;;;11.72;71.70;94408.53;5063973;28;20416;-79
2023/03/26 03:01:17;;;;;;;2.70;2.17;;;;;;;11.51;71.77;94410.91;5063095;28;20470;-79
2023/03/26 03:03:42;;;;;;;4.15;2.22;;;;;;;11.31;71.74;94390.16;5071321;28;20448;-79
2023/03/26 03:06:08;;;;;;;2.60;1.93;;;;;;;11.41;71.95;94400.16;5063944;28;20205;-79
2023/03/26 03:08:34;;;;;;;4.00;2.42;;;;;;;11.49;71.31;94413.81;5056292;28;20478;-79
2023/03/26 03:11:07;;;;;;;2.83;2.00;;;;;;;11.48;71.64;94414.81;5061784;28;20213;-79
2023/03/26 03:13:33;;;;;;;3.07;2.27;;;;;;;11.56;71.37;94424.22;5065126;28;20995;-80
2023/03/26 03:15:58;;;;;;;2.53;1.67;;;;;;;11.35;71.46;94389.47;5063813;28;20181;-79
2023/03/26 03:18:24;;;;;;;1.67;1.57;;;;;;;11.52;71.17;94428.34;5064071;28;20817;-79
2023/03/26 03:20:50;;;;;;;4.57;2.13;;;;;;;11.49;71.12;94431.44;5063554;28;20185;-79
2023/03/26 03:23:16;;;;;;;3.13;2.10;;;;;;;11.47;71.27;94434.31;5062560;28;20496;-79
2023/03/26 03:25:41;;;;;;;1.90;1.70;;;;;;;11.02;71.09;94394.44;5056936;28;20419;-79
2023/03/26 03:28:07;;;;;;;2.67;2.10;;;;;;;11.18;71.53;94448.31;5060242;28;20437;-79
2023/03/26 03:30:33;;;;;;;4.82;3.25;;;;;;;11.06;71.72;94415.88;5062846;28;20407;-79
2023/03/26 03:32:58;;;;;;;5.70;3.85;;;;;;;11.26;71.68;94440.09;5058342;28;20431;-79
2023/03/26 03:35:26;;;;;;;4.37;3.20;;;;;;;11.24;71.63;94432.41;5057659;28;20482;-79
2023/03/26 03:37:52;;;;;;;5.27;2.87;;;;;;;11.05;71.72;94407.16;5063459;28;20178;-80
2023/03/26 03:40:18;;;;;;;2.85;2.17;;;;;;;10.92;71.99;94392.34;5054123;28;20415;-80
2023/03/26 03:42:44;;;;;;;4.03;3.10;;;;;;;10.96;72.47;94398.78;5064903;28;20453;-79
2023/03/26 03:45:10;;;;;;;4.07;3.00;;;;;;;11.20;72.23;94418.09;5061009;28;20409;-79
2023/03/26 03:47:35;;;;;;;5.90;3.87;;;;;;;11.15;71.42;94407.44;5060964;28;20179;-80
2023/03/26 03:50:01;;;;;;;7.80;3.90;;;;;;;11.19;72.13;94432.28;5051336;28;20450;-80
2023/03/26 03:52:27;;;;;;;3.73;3.07;;;;;;;11.23;71.63;94430.81;5061182;28;20163;-80
2023/03/26 03:54:53;;;;;;;6.70;4.20;;;;;;;11.26;71.88;94425.09;5058592;28;20452;-79
2023/03/26 03:57:20;;;;;;;9.67;4.73;;;;;;;11.33;71.78;94430.25;5062386;28;20648;-78
2023/03/26 03:59:46;;;;;;;7.97;4.20;;;;;;;11.35;71.48;94439.53;5068271;28;20241;-78
2023/03/26 04:02:12;;;;;;;6.60;3.60;;;;;;;11.35;71.25;94428.19;5060643;28;20202;-79
2023/03/26 04:04:38;;;;;;;5.87;3.53;;;;;;;11.32;71.35;94424.19;5052073;28;20636;-79
2023/03/26 04:07:05;;;;;;;3.90;2.70;;;;;;;11.27;71.30;94424.06;5061738;28;20213;-78
2023/03/26 04:09:30;;;;;;;4.23;2.87;;;;;;;11.25;71.46;94427.94;5071966;28;20225;-78
2023/03/26 04:11:56;;;;;;;3.33;2.80;;;;;;;11.15;71.91;94438.25;5070488;28;20914;-78
2023/03/26 04:14:22;;;;;;;2.40;1.90;;;;;;;11.10;71.88;94446.78;5054302;28;20221;-78
2023/03/26 04:16:48;;;;;;;2.97;2.30;;;;;;;10.86;72.55;94438.00;5061103;28;20547;-78
2023/03/26 04:19:14;;;;;;;2.53;2.10;;;;;;;10.93;73.09;94457.16;5071675;28;20548;-78
2023/03/26 04:21:41;;;;;;;3.50;2.60;;;;;;;10.96;73.42;94462.00;5071481;28;20257;-78
2023/03/26 04:24:08;;;;;;;3.83;2.33;;;;;;;10.95;73.45;94460.38;5062836;28;20175;-78
2023/03/26 04:26:34;;;;;;;3.70;2.70;;;;;;;11.01;73.15;94465.75;5068190;28;20976;-78
2023/03/26 04:29:02;;;;;;;3.97;3.10;;;;;;;11.10;73.11;94472.34;5068376;28;20593;-78
2023/03/26 04:31:28;;;;;;;4.83;3.50;;;;;;;11.15;73.14;94481.19;5054580;28;20411;-78
2023/03/26 04:34:17;;;;;;;4.20;3.07;;;;;;;11.19;72.55;94486.81;5060237;28;20448;-78
2023/03/26 04:36:45;;;;;;;7.37;3.57;;;;;;;11.11;72.86;94484.47;5053648;28;20816;-78
2023/03/26 04:39:12;;;;;;;5.38;3.78;;;;;;;11.02;72.36;94475.28;5049842;28;20411;-78
2023/03/26 04:41:38;;;;;;;5.90;4.07;;;;;;;11.04;72.43;94489.03;5052826;28;20512;-78
2023/03/26 04:44:03;;;;;;;7.47;4.60;;;;;;;10.97;72.96;94486.50;5049373;28;20419;-78
2023/03/26 04:46:32;;;;;;;5.13;3.63;;;;;;;10.94;72.47;94469.31;5051484;28;20263;-78
2023/03/26 04:48:58;;;;;;;3.97;3.13;;;;;;;11.25;72.32;94514.88;5061183;28;20209;-78
2023/03/26 04:51:29;;;;;;;4.30;3.17;;;;;;;11.33;71.81;94517.19;5062942;28;20248;-78
2023/03/26 04:53:58;;;;;;;7.77;4.40;;;;;;;11.32;70.82;94513.78;5058936;28;20628;-78
2023/03/26 04:56:38;;;;;;;7.03;4.18;;;;;;;11.32;71.01;94519.06;5051185;28;20807;-78
2023/03/26 04:59:03;;;;;;;6.33;4.40;;;;;;;11.26;70.58;94513.84;5050171;28;20426;-78
2023/03/26 05:01:29;;;;;;;8.25;4.60;;;;;;;11.21;70.73;94513.72;5055608;28;20528;-78
2023/03/26 05:03:58;;;;;;;9.20;5.40;;;;;;;11.15;70.84;94501.47;5059498;28;20420;-81
2023/03/26 05:06:26;;;;;;;11.20;6.13;;;;;;;11.31;71.09;94522.72;5050620;28;20403;-80
2023/03/26 05:08:53;;;;;;;6.13;4.43;;;;;;;11.54;70.59;94522.00;5065166;28;20210;-80
2023/03/26 05:11:18;;;;;;;5.60;4.60;;;;;;;11.79;68.83;94535.03;5063025;28;20245;-80
2023/03/26 05:13:45;;;;;;;7.27;4.83;;;;;;;11.95;68.38;94541.50;5060035;28;20190;-80
2023/03/26 05:16:12;;;;;;;6.90;4.50;;;;;;;12.00;66.99;94546.91;5060264;28;20167;-80
2023/03/26 05:18:37;;;;;;;6.80;4.47;;;;;;;12.21;67.08;94548.97;5059303;28;20592;-79
2023/03/26 05:21:03;;;;;;;4.60;3.63;;;;;;;12.29;66.07;94548.63;5067589;28;20187;-79
2023/03/26 05:23:29;;;;;;;4.20;3.60;;;;;;;12.32;66.08;94540.28;5064453;28;20193;-79
2023/03/26 05:25:55;;;;;;;4.67;3.33;;;;;;;12.54;66.31;94553.69;5065924;28;20196;-79
2023/03/26 05:28:23;;;;;;;4.77;3.83;;;;;;;12.83;65.83;94550.13;5061753;28;20362;-81
2023/03/26 05:30:49;;;;;;;3.97;3.20;;;;;;;12.88;65.15;94509.00;5070010;28;20560;-81
2023/03/26 05:33:15;;;;;;;5.03;3.47;;;;;;;13.40;64.26;94560.84;5066292;28;20187;-81
2023/03/26 05:35:42;;;;;;;5.33;4.37;;;;;;;13.72;63.34;94557.72;5065665;28;20166;-81
2023/03/26 05:38:07;;;;;;;7.07;4.53;;;;;;;14.01;62.59;94553.19;5065712;28;20170;-81
2023/03/26 05:40:32;;;;;;;9.50;5.07;;;;;;;14.27;60.85;94552.56;5064934;28;20171;-78
2023/03/26 05:42:59;;;;;;;6.03;4.33;;;;;;;14.41;60.22;94539.81;5063254;28;20224;-81
2023/03/26 05:45:25;;;;;;;4.17;3.77;;;;;;;14.60;59.00;94565.81;5062789;28;20179;-81
2023/03/26 05:47:53;;;;;;;5.27;3.50;;;;;;;14.68;58.15;94573.38;5062360;28;20221;-81
2023/03/26 05:50:18;;;;;;;5.90;3.80;;;;;;;14.38;58.41;94537.63;5065084;28;20231;-81
2023/03/26 05:52:44;;;;;;;5.35;4.22;;;;;;;14.54;58.76;94573.91;5065241;28;20265;-80
2023/03/26 05:55:10;;;;;;;7.53;4.83;;;;;;;14.57;59.22;94579.53;5062588;28;20214;-81
2023/03/26 05:57:36;;;;;;;8.80;5.43;;;;;;;14.71;58.88;94569.41;5069208;28;20190;-79
2023/03/26 06:00:03;;;;;;;5.30;3.97;;;;;;;14.70;57.21;94538.69;5065016;28;20225;-79
2023/03/26 06:02:29;;;;;;;9.60;6.30;;;;;;;15.03;55.86;94567.75;5065671;28;20168;-80
2023/03/26 06:04:55;;;;;;;9.98;5.30;;;;;;;15.22;54.38;94565.59;5054139;28;20336;-80
2023/03/26 06:07:21;;;;;;;5.85;5.25;;;;;;;15.37;55.67;94565.78;5072944;28;20163;-81
2023/03/26 06:09:47;;;;;;;9.20;4.78;;;;;;;15.54;55.58;94544.53;5074128;28;20234;-81
2023/03/26 06:12:14;;;;;;;5.70;5.10;;;;;;;15.77;53.59;94533.59;5067354;28;20217;-81
2023/03/26 06:14:41;;;;;;;6.55;4.78;;;;;;;16.26;52.60;94565.38;5064958;28;20202;-80
2023/03/26 06:17:07;;;;;;;4.60;4.10;;;;;;;16.42;52.03;94553.84;5064495;28;20193;-83
2023/03/26 06:19:33;;;;;;;5.20;4.30;;;;;;;16.73;50.63;94554.88;5053840;28;20643;-81
2023/03/26 06:21:58;;;;;;;6.38;3.78;;;;;;;16.90;49.97;94568.81;5058408;28;20171;-80
2023/03/26 06:24:24;;;;;;;6.40;4.13;;;;;;;17.17;50.84;94554.59;5063955;28;20179;-81
2023/03/26 06:26:50;;;;;;;4.40;3.58;;;;;;;17.46;48.69;94563.78;5066593;28;20189;-78
2023/03/26 06:29:15;;;;;;;5.88;4.55;;;;;;;17.75;48.65;94555.34;5061334;28;20221;-79
2023/03/26 06:31:41;;;;;;;4.65;4.10;;;;;;;17.76;47.80;94509.03;5063767;28;20228;-80
2023/03/26 06:34:06;;;;;;;5.82;4.95;;;;;;;18.17;46.58;94544.50;5064655;28;20843;-82
2023/03/26 06:36:32;;;;;;;5.47;4.68;;;;;;;17.93;47.20;94521.06;5054970;28;20178;-81
2023/03/26 06:38:57;;;;;;;5.75;4.90;;;;;;;18.27;46.06;94549.84;5062506;28;20217;-79
2023/03/26 06:41:23;;;;;;;7.43;6.18;;;;;;;17.88;45.29;94544.22;5062396;28;20221;-79
2023/03/26 06:43:48;;;;;;;5.55;4.88;;;;;;;17.73;45.74;94556.41;5062255;28;20240;-81
2023/03/26 06:46:14;;;;;;;6.20;4.93;;;;;;;17.74;46.18;94554.56;5063084;28;20555;-81
2023/03/26 06:48:41;;;;;;;5.15;4.38;;;;;;;17.56;45.74;94563.00;5060916;28;20199;-81
2023/03/26 06:51:07;;;;;;;5.35;4.30;;;;;;;17.45;46.61;94566.69;5064162;28;20174;-81
2023/03/26 06:53:33;;;;;;;7.78;5.40;;;;;;;17.65;46.68;94580.09;5061375;28;20177;-81
2023/03/26 06:55:58;;;;;;;5.72;4.28;;;;;;;18.04;45.89;94572.47;5062690;28;20177;-81
2023/03/26 06:58:24;;;;;;;5.60;4.55;;;;;;;18.36;45.06;94575.72;5068126;28;20179;-81
2023/03/26 07:00:52;;;;;;;6.32;5.00;;;;;;;18.15;43.97;94570.66;5073434;28;20233;-79
2023/03/26 07:03:17;;;;;;;5.80;4.63;;;;;;;17.99;44.06;94583.09;5073349;28;20174;-81
2023/03/26 07:05:42;;;;;;;7.63;4.75;;;;;;;17.48;44.41;94537.69;5072100;28;20227;-79
2023/03/26 07:08:08;;;;;;;6.70;5.32;;;;;;;17.48;45.82;94560.84;5068726;28;20195;-79
2023/03/26 07:10:33;;;;;;;4.35;3.92;;;;;;;17.28;44.31;94574.88;5061626;28;20175;-79
2023/03/26 07:12:59;;;;;;;6.57;4.78;;;;;;;16.96;45.25;94559.00;5060360;28;20185;-79
2023/03/26 07:15:26;;;;;;;6.93;4.88;;;;;;;16.72;46.68;94574.53;5063475;28;20179;-79
2023/03/26 07:17:51;;;;;;;4.45;3.85;;;;;;;16.18;45.93;94539.28;5072946;28;20159;-79
2023/03/26 07:20:17;;;;;;;5.15;4.10;;;;;;;15.94;47.59;94538.81;5063578;28;20551;-79
2023/03/26 07:22:43;;;;;;;6.85;4.40;;;;;;;15.73;47.89;94508.63;5063612;28;20170;-79
2023/03/26 07:25:09;;;;;;;7.40;4.60;;;;;;;15.90;49.72;94555.50;5061317;28;20213;-79
2023/03/26 07:27:45;;;;;;;7.32;4.50;;;;;;;16.40;51.73;94537.34;5051030;28;20632;-79
2023/03/26 07:30:14;;;;;;;8.18;3.70;;;;;;;17.43;49.53;94556.31;5052668;28;20225;-80
2023/03/26 07:33:05;;;;;;;4.43;3.50;;;;;;;18.28;45.24;94546.13;5061387;28;20178;-79
2023/03/26 07:35:54;;;;;;;5.63;3.45;;;;;;;18.80;44.78;94522.66;5061294;28;20569;-79
2023/03/26 07:38:35;;;;;;;6.53;3.28;;;;;;;18.79;42.57;94550.41;5061329;28;20175;-79
2023/03/26 07:41:23;;;;;;;5.88;3.58;;;;;;;18.98;42.85;94517.81;5062736;28;20174;-80
2023/03/26 07:43:54;;;;;;;6.55;4.28;;;;;;;19.28;41.96;94551.63;5067056;28;20186;-80
2023/03/26 07:46:27;;;;;;;4.60;3.55;;;;;;;19.17;42.36;94554.31;5060295;28;20671;-82
2023/03/26 07:48:57;;;;;;;6.35;3.60;;;;;;;19.45;42.57;94541.41;5064376;28;20674;-79
2023/03/26 07:51:23;;;;;;;4.97;4.15;;;;;;;19.73;41.36;94539.97;5072242;28;20658;-80
2023/03/26 07:53:48;;;;;;;4.40;3.67;;;;;;;20.06;40.06;94543.78;5062964;28;20175;-79
2023/03/26 07:56:17;;;;;;;6.57;3.17;;;;;;;20.51;39.48;94546.16;5063202;28;20235;-79
2023/03/26 07:59:20;;;;;;;4.32;3.30;;;;;;;20.83;38.46;94539.47;5059361;28;20246;-79
2023/03/26 08:02:25;;;;;;;3.17;2.88;;;;;;;21.25;36.92;94542.25;5053379;28;20222;-79
2023/03/26 08:05:19;;;;;;;3.97;2.85;;;;;;;21.26;35.61;94543.06;5052025;28;20248;-80
2023/03/26 08:07:52;;;;;;;5.13;3.03;;;;;;;21.06;35.98;94520.75;5054646;28;20233;-80
2023/03/26 08:10:40;;;;;;;4.55;3.35;;;;;;;21.17;35.79;94531.34;5050866;28;20269;-80
2023/03/26 08:13:23;;;;;;;5.85;3.40;;;;;;;20.19;35.59;94535.13;5063130;28;20701;-81
2023/03/26 08:16:06;;;;;;;4.47;2.83;;;;;;;20.48;37.04;94535.22;5063537;28;20182;-80
2023/03/26 08:18:44;;;;;;;7.13;3.92;;;;;;;21.09;36.19;94538.13;5062184;28;20201;-79
2023/03/26 08:21:16;;;;;;;3.55;3.08;;;;;;;21.05;36.35;94539.75;5063332;28;20570;-80
2023/03/26 08:24:03;;;;;;;4.32;2.58;;;;;;;21.12;35.05;94548.25;5063026;28;20180;-80
2023/03/26 08:26:32;;;;;;;8.05;5.07;;;;;;;21.11;34.93;94543.97;5055870;28;20600;-79
2023/03/26 08:29:16;;;;;;;5.47;2.97;;;;;;;21.22;36.11;94547.38;5064856;28;20211;-78
2023/03/26 08:31:45;;;;;;;4.53;2.47;;;;;;;21.22;34.81;94542.03;5065824;28;20186;-78
2023/03/26 08:34:11;;;;;;;3.15;2.85;;;;;;;21.19;35.33;94535.34;5059929;28;20174;-78
2023/03/26 08:36:37;;;;;;;3.40;2.47;;;;;;;21.23;35.73;94525.69;5064338;28;20639;-78
2023/03/26 08:39:04;;;;;;;5.10;3.22;;;;;;;21.42;34.77;94545.28;5056485;28;20178;-78
2023/03/26 08:41:54;;;;;;;4.20;2.50;;;;;;;21.51;33.99;94539.28;5058304;28;20557;-79
2023/03/26 08:44:56;;;;;;;3.10;2.80;;;;;;;21.43;34.44;94538.84;5060621;28;20181;-79
2023/03/26 08:47:36;;;;;;;2.50;2.30;;;;;;;21.48;34.81;94535.28;5064258;28;20623;-78
2023/03/26 08:50:20;;;;;;;6.38;4.25;;;;;;;21.27;33.17;94540.09;5060310;28;20194;-80
2023/03/26 08:53:23;;;;;;;9.35;3.15;;;;;;;21.22;35.33;94540.16;5063860;28;20178;-79
2023/03/26 08:55:58;;;;;;;6.18;2.83;;;;;;;21.41;35.17;94542.88;5062887;28;20624;-78
2023/03/26 08:59:01;;;;;;;2.38;2.17;;;;;;;21.28;34.73;94548.91;5063482;28;20571;-79
2023/03/26 09:02:02;;;;;;;2.42;2.00;;;;;;;21.25;35.27;94552.97;5033249;28;20227;-79
2023/03/26 09:04:55;;;;;;;10.40;3.15;;;;;;;21.31;34.40;94546.47;5032930;28;20188;-79
2023/03/26 09:07:42;;;;;;;5.53;3.10;;;;;;;21.10;34.37;94547.75;5063265;28;20198;-79
2023/03/26 09:10:32;;;;;;;3.13;2.33;;;;;;;21.07;35.24;94545.63;5065321;28;20171;-81
2023/03/26 09:13:00;;;;;;;5.07;2.50;;;;;;;20.88;34.47;94537.53;5064326;28;20196;-81
2023/03/26 09:15:53;;;;;;;3.25;2.28;;;;;;;20.91;34.92;94544.19;5070279;28;20185;-81
2023/03/26 09:18:49;;;;;;;3.35;2.50;;;;;;;20.96;34.86;94536.91;5062895;28;20240;-81
2023/03/26 09:21:39;;;;;;;3.72;2.15;;;;;;;20.30;34.13;94525.97;5064202;28;20179;-81
2023/03/26 09:24:42;;;;;;;2.33;1.88;;;;;;;20.29;36.67;94521.69;5059215;28;20178;-81
2023/03/26 09:27:22;;;;;;;2.88;2.13;;;;;;;20.44;35.06;94515.47;5051692;28;20196;-81
2023/03/26 09:30:11;;;;;;;3.38;2.83;;;;;;;20.18;35.04;94512.97;5064961;28;20252;-81
2023/03/26 09:33:36;;;;;;;9.55;5.18;;;;;;;20.01;36.23;94515.22;5064976;28;20174;-81
2023/03/26 09:36:07;;;;;;;3.53;2.58;;;;;;;19.98;35.55;94525.69;5032818;28;20180;-79
2023/03/26 09:38:44;;;;;;;4.68;2.00;;;;;;;19.53;37.17;94520.31;5064818;28;20979;-82
2023/03/26 09:41:13;;;;;;;9.13;2.45;;;;;;;19.66;37.63;94515.44;5065469;28;20162;-83
2023/03/26 09:43:44;;;;;;;3.15;1.50;;;;;;;19.64;36.37;94509.56;5068365;28;20202;-82
2023/03/26 09:46:31;;;;;;;2.80;1.60;;;;;;;19.68;37.36;94507.94;5059675;28;20186;-80
2023/03/26 09:49:28;;;;;;;5.82;2.30;;;;;;;19.81;37.01;94508.13;5065316;28;20209;-81
2023/03/26 09:52:17;;;;;;;1.77;1.67;;;;;;;19.74;35.95;94499.63;5062978;28;20532;-78
2023/03/26 09:55:24;;;;;;;4.60;2.25;;;;;;;19.28;34.97;94492.91;5064921;28;20189;-83
2023/03/26 09:58:27;;;;;;;2.47;1.50;;;;;;;19.23;35.89;94494.50;5035113;28;20214;-83
2023/03/26 10:01:24;;;;;;;6.45;2.53;;;;;;;19.26;35.99;94495.84;5052887;28;20222;-87
2023/03/26 10:03:57;;;;;;;1.90;1.65;;;;;;;19.35;36.13;94477.38;5059071;28;20198;-83
2023/03/26 10:06:48;;;;;;;3.53;2.42;;;;;;;19.28;35.97;94464.34;5064918;28;20546;-84
2023/03/26 10:09:33;;;;;;;3.40;1.83;;;;;;;19.45;34.92;94474.66;5064628;28;20194;-84
2023/03/26 10:12:13;;;;;;;5.03;2.45;;;;;;;19.52;34.98;94477.84;5055853;28;20651;-83
2023/03/26 10:15:05;;;;;;;3.90;1.90;;;;;;;19.50;36.05;94469.31;5073776;28;20216;-82
2023/03/26 10:18:08;;;;;;;2.40;1.83;;;;;;;19.55;36.47;94463.94;5074082;28;20162;-80
2023/03/26 10:20:57;;;;;;;1.65;1.48;;;;;;;19.44;33.96;94449.03;5063067;28;20170;-82
2023/03/26 10:23:51;;;;;;;2.75;1.90;;;;;;;19.31;34.38;94454.97;5062360;28;20175;-81
2023/03/26 10:26:41;;;;;;;6.57;1.75;;;;;;;19.01;34.30;94445.25;5062390;28;20170;-82
2023/03/26 10:29:34;;;;;;;5.80;1.50;;;;;;;19.00;36.31;94440.97;5063991;28;20190;-87
2023/03/26 10:32:26;;;;;;;3.03;1.50;;;;;;;18.80;36.00;94423.97;5059723;28;20270;-84
2023/03/26 10:34:55;;;;;;;4.57;1.75;;;;;;;18.80;35.80;94437.31;5064356;28;20191;-85
2023/03/26 10:37:23;;;;;;;3.50;1.90;;;;;;;18.76;36.84;94436.28;5064457;28;20185;-82
2023/03/26 10:40:10;;;;;;;3.97;2.20;;;;;;;18.73;34.64;94438.66;5073849;28;20154;-84
2023/03/26 10:43:23;;;;;;;2.47;1.73;;;;;;;18.60;34.73;94426.69;5059502;28;20201;-81
2023/03/26 10:46:00;;;;;;;1.13;1.00;;;;;;;18.39;34.21;94423.25;5055329;28;20218;-81
2023/03/26 10:49:02;;;;;;;2.97;1.70;;;;;;;17.97;33.01;94414.78;5061357;28;20285;-80
2023/03/26 10:51:33;;;;;;;3.53;1.80;;;;;;;18.02;36.52;94412.91;5061027;28;20206;-80
2023/03/26 10:54:14;;;;;;;4.85;2.05;;;;;;;18.17;36.43;94420.09;5061410;28;20186;-80
2023/03/26 10:56:44;;;;;;;1.77;1.10;;;;;;;18.16;33.20;94399.88;5069611;28;20182;-81
2023/03/26 10:59:13;;;;;;;1.48;1.20;;;;;;;18.30;33.84;94410.75;5064642;28;20170;-81
2023/03/26 11:01:56;;;;;;;2.97;1.60;;;;;;;18.36;33.20;94401.66;5064333;28;20214;-81
2023/03/26 11:04:51;;;;;;;3.63;1.30;;;;;;;18.40;32.84;94398.22;5070319;28;20189;-81
2023/03/26 11:07:28;;;;;;;1.83;1.23;;;;;;;18.18;33.20;94384.38;5069969;28;20178;-81
2023/03/26 11:10:01;;;;;;;2.97;1.58;;;;;;;18.19;33.00;94396.63;5071269;28;20213;-81
2023/03/26 11:12:39;;;;;;;1.17;1.08;;;;;;;18.23;33.27;94400.38;5070511;28;20182;-81
2023/03/26 11:15:12;;;;;;;0.95;0.88;;;;;;;18.14;32.50;94390.53;5070360;28;20205;-81
2023/03/26 11:17:44;;;;;;;2.20;1.27;;;;;;;18.30;32.96;94403.56;5069337;28;20192;-81
2023/03/26 11:20:26;;;;;;;5.05;2.10;;;;;;;18.12;33.47;94361.50;5069516;28;20182;-81
2023/03/26 11:23:02;;;;;;;3.80;1.20;;;;;;;18.19;31.71;94387.84;5068268;28;20605;-81
2023/03/26 11:25:37;;;;;;;1.95;1.20;;;;;;;18.21;33.26;94385.72;5069181;28;20239;-81
2023/03/26 11:28:38;;;;;;;1.40;1.30;;;;;;;18.21;34.09;94380.38;5069873;28;20174;-81
2023/03/26 11:31:04;;;;;;;2.60;1.85;;;;;;;18.25;33.51;94387.56;5070085;28;20184;-81
2023/03/26 11:33:42;;;;;;;1.10;1.08;;;;;;;18.20;30.53;94358.28;5070605;28;20561;-80
2023/03/26 11:36:13;;;;;;;2.25;1.10;;;;;;;18.39;30.39;94374.50;5070589;28;20174;-80
2023/03/26 11:38:45;;;;;;;4.32;1.65;;;;;;;18.36;30.07;94373.16;5062916;28;20305;-80
2023/03/26 11:41:16;;;;;;;5.40;1.50;;;;;;;18.21;31.59;94369.72;5063918;28;20263;-81
2023/03/26 11:43:44;;;;;;;3.97;1.60;;;;;;;18.05;33.67;94313.81;5060352;28;20174;-81
2023/03/26 11:46:14;;;;;;;1.30;1.20;;;;;;;18.42;32.19;94355.28;5063457;28;20178;-81
2023/03/26 11:48:47;;;;;;;1.38;1.10;;;;;;;18.42;33.04;94318.75;5063591;28;20670;-81
2023/03/26 11:51:37;;;;;;;1.60;1.50;;;;;;;18.70;33.89;94337.88;5055629;28;20177;-80
2023/03/26 11:54:06;;;;;;;5.30;1.60;;;;;;;18.73;33.34;94316.81;5072234;28;20251;-82
2023/03/26 11:56:50;;;;;;;3.28;1.90;;;;;;;18.79;30.65;94331.69;5071160;28;20635;-83
2023/03/26 11:59:30;;;;;;;3.92;1.80;;;;;;;18.80;32.60;94327.16;5069102;28;20186;-82
2023/03/26 12:02:03;;;;;;;2.28;1.42;;;;;;;18.80;31.54;94303.16;5069922;28;20186;-82